createdAt,value
2023-04-20T00:01:55.207Z,5.83
2023-04-20T00:04:23.247Z,5.53
2023-04-20T00:06:52.028Z,8.83
2023-04-20T00:09:21.665Z,9.43
2023-04-20T00:11:49.596Z,4.07
2023-04-20T00:14:17.736Z,6.37
2023-04-20T00:16:45.883Z,5.67
2023-04-20T00:19:13.886Z,7.57
2023-04-20T00:21:41.800Z,6.50
2023-04-20T00:24:10.041Z,4.63
2023-04-20T00:26:40.435Z,3.77
2023-04-20T00:29:10.588Z,5.10
2023-04-20T00:31:38.561Z,8.10
2023-04-20T00:34:07.446Z,5.60
2023-04-20T00:36:35.509Z,4.07
2023-04-20T00:39:05.033Z,4.70
2023-04-20T00:41:33.005Z,7.23
2023-04-20T00:44:02.398Z,7.53
2023-04-20T00:46:30.523Z,3.87
2023-04-20T00:48:58.581Z,8.50
2023-04-20T00:51:26.608Z,5.40
2023-04-20T00:53:54.668Z,5.47
2023-04-20T00:56:22.674Z,7.43
2023-04-20T00:58:50.628Z,4.37
2023-04-20T01:01:20.029Z,4.60
2023-04-20T01:03:48.343Z,5.07
2023-04-20T01:06:16.646Z,4.77
2023-04-20T01:08:49.165Z,4.50
2023-04-20T01:11:17.160Z,6.60
2023-04-20T01:13:45.357Z,5.97
2023-04-20T01:16:13.814Z,4.43
2023-04-20T01:18:46.454Z,4.87
2023-04-20T01:21:16.488Z,5.93
2023-04-20T01:23:46.541Z,3.60
2023-04-20T01:26:17.316Z,3.83
2023-04-20T01:28:46.093Z,5.87
2023-04-20T01:31:14.708Z,3.50
2023-04-20T01:33:42.712Z,5.53
2023-04-20T01:36:10.959Z,15.53
2023-04-20T01:38:39.332Z,5.97
2023-04-20T01:41:10.223Z,5.10
2023-04-20T01:43:39.546Z,5.23
2023-04-20T01:46:07.812Z,4.97
2023-04-20T01:48:35.917Z,3.77
2023-04-20T01:51:03.950Z,7.43
2023-04-20T01:53:31.988Z,10.13
2023-04-20T01:56:00.505Z,4.30
2023-04-20T01:58:29.928Z,4.50
2023-04-20T02:00:57.919Z,5.97
2023-04-20T02:03:26.128Z,6.70
2023-04-20T02:05:54.207Z,5.27
2023-04-20T02:08:22.102Z,4.40
2023-04-20T02:10:50.141Z,6.23
2023-04-20T02:13:18.115Z,6.13
2023-04-20T02:15:47.454Z,6.90
2023-04-20T02:18:16.557Z,4.07
2023-04-20T02:20:44.846Z,5.67
2023-04-20T02:23:13.142Z,6.13
2023-04-20T02:25:41.152Z,6.53
2023-04-20T02:28:09.109Z,6.27
2023-04-20T02:30:37.065Z,5.10
2023-04-20T02:33:06.866Z,4.50
2023-04-20T02:35:35.054Z,7.53
2023-04-20T02:38:03.075Z,6.43
2023-04-20T02:40:31.071Z,5.73
2023-04-20T02:42:59.054Z,9.60
2023-04-20T02:45:27.021Z,5.87
2023-04-20T02:47:55.042Z,6.57
2023-04-20T02:50:24.539Z,5.03
2023-04-20T02:52:52.473Z,6.03
2023-04-20T02:55:20.696Z,9.93
2023-04-20T02:57:48.656Z,6.07
2023-04-20T03:00:17.226Z,6.87
2023-04-20T03:02:45.305Z,4.97
2023-04-20T03:05:13.344Z,5.53
2023-04-20T03:07:42.658Z,8.77
2023-04-20T03:10:11.687Z,7.63
2023-04-20T03:12:39.667Z,5.73
2023-04-20T03:15:08.706Z,6.50
2023-04-20T03:17:36.704Z,4.80
2023-04-20T03:20:05.863Z,6.53
2023-04-20T03:22:33.812Z,10.43
2023-04-20T03:25:03.182Z,6.70
2023-04-20T03:27:31.108Z,6.33
2023-04-20T03:30:00.389Z,5.60
2023-04-20T03:32:28.804Z,7.50
2023-04-20T03:34:57.785Z,6.33
2023-04-20T03:37:25.858Z,7.23
2023-04-20T03:39:53.892Z,6.47
2023-04-20T03:42:23.250Z,6.63
2023-04-20T03:44:51.173Z,8.30
2023-04-20T03:47:19.197Z,7.27
2023-04-20T03:49:47.144Z,7.37
2023-04-20T03:52:15.062Z,6.47
2023-04-20T03:54:43.055Z,4.70
2023-04-20T03:57:11.011Z,6.57
2023-04-20T03:59:40.413Z,6.83
2023-04-20T04:02:10.910Z,8.17
2023-04-20T04:04:39.059Z,6.23
2023-04-20T04:07:07.285Z,6.70
2023-04-20T04:09:35.250Z,6.43
2023-04-20T04:12:04.612Z,8.17
2023-04-20T04:14:33.724Z,8.57
2023-04-20T04:17:03.110Z,6.43
2023-04-20T04:19:31.103Z,7.13
2023-04-20T04:21:59.123Z,6.40
2023-04-20T04:24:28.100Z,9.60
2023-04-20T04:26:58.457Z,8.23
2023-04-20T04:29:26.840Z,7.23
2023-04-20T04:31:55.389Z,9.60
2023-04-20T04:34:29.762Z,7.27
2023-04-20T04:36:57.927Z,8.33
2023-04-20T04:39:26.764Z,6.33
2023-04-20T04:41:54.863Z,8.50
2023-04-20T04:44:22.966Z,8.27
2023-04-20T04:46:51.253Z,6.40
2023-04-20T04:49:20.458Z,5.83
2023-04-20T04:51:50.006Z,5.50
2023-04-20T04:54:18.096Z,4.10
2023-04-20T04:56:46.063Z,4.60
2023-04-20T04:59:14.071Z,3.97
2023-04-20T05:01:42.046Z,4.67
2023-04-20T05:04:10.311Z,3.60
2023-04-20T05:06:38.378Z,4.03
2023-04-20T05:09:07.724Z,4.03
2023-04-20T05:11:35.780Z,4.23
2023-04-20T05:14:03.764Z,4.53
2023-04-20T05:16:31.809Z,3.63
2023-04-20T05:18:59.874Z,3.50
2023-04-20T05:21:28.404Z,4.17
2023-04-20T05:23:56.419Z,3.13
2023-04-20T05:26:25.841Z,3.70
2023-04-20T05:28:53.846Z,3.47
2023-04-20T05:31:21.841Z,3.30
2023-04-20T05:33:49.791Z,2.83
2023-04-20T05:36:17.904Z,4.90
2023-04-20T05:38:46.269Z,3.27
2023-04-20T05:41:14.210Z,3.30
2023-04-20T05:43:43.526Z,3.23
2023-04-20T05:46:11.751Z,3.83
2023-04-20T05:48:39.845Z,4.63
2023-04-20T05:51:08.118Z,5.13
2023-04-20T05:53:36.133Z,3.17
2023-04-20T05:56:04.454Z,3.10
2023-04-20T05:58:33.843Z,5.13
2023-04-20T06:01:04.474Z,4.60
2023-04-20T06:03:32.767Z,4.03
2023-04-20T06:06:00.857Z,3.93
2023-04-20T06:08:28.905Z,5.37
2023-04-20T06:10:58.141Z,4.20
2023-04-20T06:13:26.264Z,5.10
2023-04-20T06:15:54.488Z,5.37
2023-04-20T06:18:24.085Z,4.83
2023-04-20T06:20:52.217Z,4.43
2023-04-20T06:23:20.316Z,5.70
2023-04-20T06:25:48.393Z,6.30
2023-04-20T06:28:19.671Z,9.60
2023-04-20T06:30:47.721Z,6.67
2023-04-20T06:33:17.287Z,5.83
2023-04-20T06:35:46.728Z,7.50
2023-04-20T06:38:14.837Z,10.40
2023-04-20T06:40:42.910Z,6.13
2023-04-20T06:43:10.861Z,8.00
2023-04-20T06:45:40.163Z,8.23
2023-04-20T06:48:20.176Z,7.93
2023-04-20T06:50:58.561Z,6.10
2023-04-20T06:53:26.666Z,7.97
2023-04-20T06:55:55.575Z,9.30
2023-04-20T06:58:23.893Z,7.13
2023-04-20T07:00:51.913Z,8.70
2023-04-20T07:03:22.609Z,5.83
2023-04-20T07:05:51.864Z,7.97
2023-04-20T07:08:22.263Z,6.47
2023-04-20T07:10:52.085Z,7.13
2023-04-20T07:13:21.432Z,5.30
2023-04-20T07:15:54.132Z,6.03
2023-04-20T07:18:22.637Z,6.83
2023-04-20T07:20:51.074Z,5.27
2023-04-20T07:23:19.214Z,5.73
2023-04-20T07:25:52.322Z,5.90
2023-04-20T07:28:20.463Z,5.20
2023-04-20T07:30:48.692Z,5.70
2023-04-20T07:33:16.707Z,5.23
2023-04-20T07:35:44.622Z,7.23
2023-04-20T07:38:12.737Z,6.03
2023-04-20T07:40:40.950Z,7.07
2023-04-20T07:43:11.478Z,5.43
2023-04-20T07:45:41.153Z,6.17
2023-04-20T07:48:12.501Z,6.53
2023-04-20T07:50:40.760Z,6.27
2023-04-20T07:53:08.900Z,5.63
2023-04-20T07:55:37.048Z,4.83
2023-04-20T07:58:05.043Z,5.67
2023-04-20T08:00:35.563Z,5.00
2023-04-20T08:03:03.720Z,5.87
2023-04-20T08:05:35.154Z,5.43
2023-04-20T08:08:03.104Z,5.67
2023-04-20T08:10:31.084Z,4.60
2023-04-20T08:12:59.403Z,4.23
2023-04-20T08:15:27.477Z,5.67
2023-04-20T08:17:56.896Z,5.30
2023-04-20T08:20:24.988Z,6.37
2023-04-20T08:22:53.295Z,4.93
2023-04-20T08:25:21.327Z,5.13
2023-04-20T08:27:49.443Z,4.90
2023-04-20T08:30:17.473Z,5.93
2023-04-20T08:32:45.769Z,5.50
2023-04-20T08:35:15.237Z,4.75
2023-04-20T08:37:43.394Z,4.33
2023-04-20T08:40:13.016Z,4.50
2023-04-20T08:42:44.292Z,5.97
2023-04-20T08:45:14.231Z,5.00
2023-04-20T08:47:44.606Z,6.07
2023-04-20T08:50:14.249Z,6.23
2023-04-20T08:52:42.266Z,4.97
2023-04-20T08:55:10.862Z,5.80
2023-04-20T08:57:38.885Z,5.83
2023-04-20T09:00:12.893Z,6.50
2023-04-20T09:02:51.474Z,7.47
2023-04-20T09:05:28.443Z,4.83
2023-04-20T09:07:57.861Z,5.03
2023-04-20T09:10:26.830Z,6.47
2023-04-20T09:12:55.084Z,7.83
2023-04-20T09:15:27.179Z,5.53
2023-04-20T09:17:55.644Z,6.13
2023-04-20T09:20:33.422Z,6.25
2023-04-20T09:23:12.970Z,6.57
2023-04-20T09:25:43.478Z,5.40
2023-04-20T09:28:11.522Z,6.47
2023-04-20T09:30:41.533Z,5.17
2023-04-20T09:33:12.424Z,5.90
2023-04-20T09:35:43.551Z,6.67
2023-04-20T09:38:19.758Z,5.53
2023-04-20T09:40:47.738Z,8.73
2023-04-20T09:43:20.064Z,6.65
2023-04-20T09:45:49.039Z,5.77
2023-04-20T09:48:19.582Z,5.20
2023-04-20T09:50:51.508Z,4.77
2023-04-20T09:53:20.871Z,9.33
2023-04-20T09:55:49.750Z,8.47
2023-04-20T09:58:20.252Z,6.33
2023-04-20T10:00:48.350Z,5.07
2023-04-20T10:03:18.445Z,7.27
2023-04-20T10:05:48.316Z,8.73
2023-04-20T10:08:16.327Z,5.53
2023-04-20T10:10:46.567Z,7.43
2023-04-20T10:13:15.542Z,5.83
2023-04-20T10:15:43.907Z,7.10
2023-04-20T10:18:19.781Z,8.70
2023-04-20T10:20:50.226Z,6.83
2023-04-20T10:23:19.791Z,6.37
2023-04-20T10:25:57.356Z,7.17
2023-04-20T10:28:25.535Z,7.77
2023-04-20T10:30:54.682Z,6.13
2023-04-20T10:33:22.815Z,5.50
2023-04-20T10:35:55.062Z,5.57
2023-04-20T10:38:31.076Z,9.37
2023-04-20T10:41:06.379Z,9.03
2023-04-20T10:43:35.242Z,5.40
2023-04-20T10:46:03.513Z,6.57
2023-04-20T10:48:31.738Z,9.47
2023-04-20T10:51:10.619Z,6.27
2023-04-20T10:53:38.563Z,7.57
2023-04-20T10:56:07.637Z,7.07
2023-04-20T10:58:35.579Z,5.00
2023-04-20T11:01:04.985Z,6.27
2023-04-20T11:03:35.520Z,5.43
2023-04-20T11:06:05.029Z,5.60
2023-04-20T11:08:40.282Z,5.40
2023-04-20T11:11:19.330Z,5.43
2023-04-20T11:13:47.444Z,7.27
2023-04-20T11:16:16.527Z,6.43
2023-04-20T11:18:52.831Z,7.13
2023-04-20T11:21:23.009Z,4.87
2023-04-20T11:23:51.417Z,5.83
2023-04-20T11:26:19.395Z,4.20
2023-04-20T11:28:55.875Z,5.33
2023-04-20T11:31:24.446Z,5.53
2023-04-20T11:33:52.551Z,5.57
2023-04-20T11:36:23.145Z,4.73
2023-04-20T11:38:51.875Z,3.93
2023-04-20T11:41:20.064Z,5.33
2023-04-20T11:43:49.122Z,5.43
2023-04-20T11:46:18.615Z,4.70
2023-04-20T11:48:49.520Z,4.33
2023-04-20T11:51:17.542Z,4.67
2023-04-20T11:53:47.013Z,6.47
2023-04-20T11:56:14.988Z,5.43
2023-04-20T11:58:43.010Z,5.43
2023-04-20T12:01:11.312Z,6.17
2023-04-20T12:03:39.362Z,5.37
2023-04-20T12:06:07.640Z,3.93
2023-04-20T12:08:35.902Z,4.77
2023-04-20T12:11:05.546Z,5.03
2023-04-20T12:13:33.536Z,5.67
2023-04-20T12:16:01.859Z,6.23
2023-04-20T12:18:29.905Z,4.60
2023-04-20T12:20:57.894Z,5.07
2023-04-20T12:23:25.931Z,5.27
2023-04-20T12:25:53.827Z,6.27
2023-04-20T12:28:23.271Z,4.63
2023-04-20T12:31:04.805Z,5.73
2023-04-20T12:33:32.891Z,3.77
2023-04-20T12:36:01.159Z,3.67
2023-04-20T12:38:29.244Z,4.57
2023-04-20T12:40:57.213Z,4.57
2023-04-20T12:43:26.907Z,6.53
2023-04-20T12:45:55.195Z,4.93
2023-04-20T12:48:23.404Z,4.63
2023-04-20T12:50:52.088Z,3.83
2023-04-20T12:53:21.733Z,4.07
2023-04-20T12:55:55.054Z,4.93
2023-04-20T12:58:30.015Z,5.30
2023-04-20T13:00:58.268Z,4.47
2023-04-20T13:03:26.690Z,4.67
2023-04-20T13:05:55.060Z,6.80
2023-04-20T13:08:23.087Z,4.47
2023-04-20T13:10:51.221Z,5.20
2023-04-20T13:13:19.275Z,5.33
2023-04-20T13:15:48.641Z,3.70
2023-04-20T13:18:16.695Z,4.17
2023-04-20T13:20:44.646Z,5.73
2023-04-20T13:23:12.683Z,4.17
2023-04-20T13:25:40.782Z,4.73
2023-04-20T13:28:08.698Z,3.70
2023-04-20T13:30:36.762Z,5.00
2023-04-20T13:33:06.576Z,3.93
2023-04-20T13:35:35.124Z,3.33
2023-04-20T13:38:03.932Z,4.23
2023-04-20T13:40:31.867Z,3.50
2023-04-20T13:42:59.842Z,5.40
2023-04-20T13:45:28.127Z,3.50
2023-04-20T13:47:56.122Z,3.67
2023-04-20T13:50:25.702Z,4.07
2023-04-20T13:52:53.626Z,4.97
2023-04-20T13:55:21.772Z,4.30
2023-04-20T13:57:49.708Z,4.83
2023-04-20T14:00:18.193Z,7.13
2023-04-20T14:02:47.354Z,4.57
2023-04-20T14:05:18.980Z,6.00
2023-04-20T14:07:48.281Z,4.67
2023-04-20T14:10:16.340Z,4.33
2023-04-20T14:12:44.284Z,6.60
2023-04-20T14:15:13.397Z,4.23
2023-04-20T14:17:41.401Z,5.20
2023-04-20T14:20:10.738Z,4.23
2023-04-20T14:22:52.712Z,6.43
2023-04-20T14:25:22.038Z,5.80
2023-04-20T14:27:50.024Z,6.20
2023-04-20T14:30:18.036Z,5.67
2023-04-20T14:32:56.732Z,5.20
2023-04-20T14:35:26.070Z,6.20
2023-04-20T14:37:54.311Z,5.33
2023-04-20T14:40:23.726Z,10.03
2023-04-20T14:42:51.645Z,5.50
2023-04-20T14:45:19.826Z,6.67
2023-04-20T14:47:47.860Z,6.83
2023-04-20T14:50:15.825Z,4.73
2023-04-20T14:52:43.748Z,4.60
2023-04-20T14:55:11.701Z,4.10
2023-04-20T14:57:41.207Z,4.37
2023-04-20T15:00:11.690Z,4.73
2023-04-20T15:02:40.253Z,4.00
2023-04-20T15:05:10.549Z,4.90
2023-04-20T15:07:39.214Z,4.57
2023-04-20T15:10:07.566Z,4.90
2023-04-20T15:12:35.455Z,5.77
2023-04-20T15:15:05.221Z,5.30
2023-04-20T15:17:33.164Z,4.30
2023-04-20T15:20:01.073Z,3.73
2023-04-20T15:22:28.991Z,5.33
2023-04-20T15:24:56.952Z,3.93
2023-04-20T15:27:24.851Z,4.33
2023-04-20T15:29:52.853Z,5.50
2023-04-20T15:32:22.073Z,4.67
2023-04-20T15:34:50.330Z,4.10
2023-04-20T15:37:18.262Z,4.00
2023-04-20T15:39:46.246Z,8.93
2023-04-20T15:42:14.236Z,5.30
2023-04-20T15:44:42.368Z,5.93
2023-04-20T15:47:10.468Z,7.63
2023-04-20T15:49:40.617Z,5.83
2023-04-20T15:52:09.117Z,5.17
2023-04-20T15:54:37.632Z,5.93
2023-04-20T15:57:05.565Z,6.60
2023-04-20T15:59:33.650Z,5.57
2023-04-20T16:02:01.781Z,10.63
2023-04-20T16:04:29.986Z,6.40
2023-04-20T16:06:59.424Z,6.20
2023-04-20T16:09:27.440Z,6.97
2023-04-20T16:11:55.352Z,6.73
2023-04-20T16:14:23.333Z,9.13
2023-04-20T16:16:51.235Z,5.97
2023-04-20T16:19:19.171Z,9.07
2023-04-20T16:21:47.037Z,6.20
2023-04-20T16:24:16.776Z,7.77
2023-04-20T16:26:45.086Z,5.73
2023-04-20T16:29:13.088Z,8.03
2023-04-20T16:31:41.099Z,6.57
2023-04-20T16:34:09.077Z,6.63
2023-04-20T16:36:36.987Z,7.00
2023-04-20T16:39:05.700Z,6.03
2023-04-20T16:41:34.957Z,7.57
2023-04-20T16:44:02.957Z,5.93
2023-04-20T16:46:31.925Z,8.73
2023-04-20T16:49:00.191Z,6.63
2023-04-20T16:51:29.185Z,6.93
2023-04-20T16:53:57.495Z,5.43
2023-04-20T16:56:25.439Z,5.93
2023-04-20T16:58:54.773Z,5.77
2023-04-20T17:01:22.749Z,5.50
2023-04-20T17:03:51.383Z,5.27
2023-04-20T17:06:19.628Z,5.00
2023-04-20T17:08:49.352Z,5.73
2023-04-20T17:11:19.193Z,6.43
2023-04-20T17:13:47.140Z,6.63
2023-04-20T17:16:16.449Z,6.73
2023-04-20T17:18:44.407Z,6.00
2023-04-20T17:21:12.336Z,6.40
2023-04-20T17:23:41.152Z,6.43
2023-04-20T17:26:09.703Z,7.30
2023-04-20T17:28:37.564Z,8.43
2023-04-20T17:31:05.554Z,7.93
2023-04-20T17:33:34.806Z,7.07
2023-04-20T17:36:02.815Z,8.90
2023-04-20T17:38:30.805Z,8.17
2023-04-20T17:40:58.718Z,9.47
2023-04-20T17:43:26.618Z,9.67
2023-04-20T17:45:54.604Z,8.67
2023-04-20T17:48:22.763Z,8.97
2023-04-20T17:50:52.485Z,8.97
2023-04-20T17:53:20.445Z,8.47
2023-04-20T17:55:48.346Z,9.20
2023-04-20T17:58:16.784Z,8.67
2023-04-20T18:00:45.061Z,10.10
2023-04-20T18:03:14.667Z,9.73
2023-04-20T18:05:43.000Z,13.57
2023-04-20T18:08:13.257Z,9.90
2023-04-20T18:10:41.233Z,9.80
2023-04-20T18:13:09.508Z,9.53
2023-04-20T18:15:37.483Z,11.87
2023-04-20T18:18:05.778Z,9.90
2023-04-20T18:20:33.909Z,10.20
2023-04-20T18:23:01.953Z,11.13
2023-04-20T18:25:31.302Z,11.57
2023-04-20T18:27:59.258Z,11.37
2023-04-20T18:30:27.248Z,10.30
2023-04-20T18:32:55.249Z,11.57
2023-04-20T18:35:23.190Z,11.70
2023-04-20T18:37:51.759Z,21.23
2023-04-20T18:40:19.708Z,13.07
2023-04-20T18:42:48.973Z,12.03
2023-04-20T18:45:17.017Z,12.23
2023-04-20T18:47:44.949Z,13.83
2023-04-20T18:50:12.968Z,14.27
2023-04-20T18:52:41.123Z,16.40
2023-04-20T18:55:09.974Z,13.17
2023-04-20T18:57:37.962Z,14.93
2023-04-20T19:00:09.270Z,14.47
2023-04-20T19:02:37.594Z,17.30
2023-04-20T19:05:06.306Z,15.70
2023-04-20T19:07:34.203Z,15.33
2023-04-20T19:10:02.101Z,16.37
2023-04-20T19:12:30.479Z,18.93
2023-04-20T19:14:58.400Z,15.00
2023-04-20T19:17:27.935Z,15.23
2023-04-20T19:19:56.677Z,14.63
2023-04-20T19:22:24.956Z,13.60
2023-04-20T19:24:53.084Z,14.53
2023-04-20T19:27:21.076Z,15.03
2023-04-20T19:29:49.152Z,13.90
2023-04-20T19:32:17.513Z,15.77
2023-04-20T19:34:47.400Z,14.50
2023-04-20T19:37:16.306Z,15.83
2023-04-20T19:39:44.526Z,16.00
2023-04-20T19:42:12.925Z,15.37
2023-04-20T19:44:41.264Z,16.60
2023-04-20T19:47:11.482Z,15.90
2023-04-20T19:49:40.061Z,16.10
2023-04-20T19:52:10.132Z,18.20
2023-04-20T19:54:38.166Z,19.47
2023-04-20T19:57:06.799Z,17.67
2023-04-20T19:59:37.596Z,18.50
2023-04-20T20:02:06.292Z,17.57
2023-04-20T20:04:37.923Z,19.60
2023-04-20T20:07:06.447Z,19.77
2023-04-20T20:09:36.474Z,20.47
2023-04-20T20:12:08.559Z,22.77
2023-04-20T20:14:37.685Z,21.30
2023-04-20T20:17:06.613Z,21.37
2023-04-20T20:19:35.050Z,21.90
2023-04-20T20:22:03.425Z,21.80
2023-04-20T20:24:31.582Z,19.97
2023-04-20T20:27:02.606Z,20.67
2023-04-20T20:29:30.834Z,21.27
2023-04-20T20:31:59.115Z,21.30
2023-04-20T20:34:27.572Z,19.50
2023-04-20T20:36:56.232Z,21.10
2023-04-20T20:39:26.200Z,21.40
2023-04-20T20:41:57.649Z,21.37
2023-04-20T20:44:28.908Z,21.60
2023-04-20T20:49:43.046Z,22.00
2023-04-20T20:52:14.823Z,20.37
2023-04-20T20:54:43.566Z,23.53
2023-04-20T20:57:13.621Z,21.13
2023-04-20T20:59:55.025Z,23.03
2023-04-20T21:02:23.856Z,23.10
2023-04-20T21:04:55.442Z,23.33
2023-04-20T21:07:42.052Z,23.87
2023-04-20T21:10:15.383Z,22.37
2023-04-20T21:12:46.332Z,23.77
2023-04-20T21:15:20.850Z,24.20
2023-04-20T21:17:49.520Z,24.80
2023-04-20T21:20:17.908Z,26.20
2023-04-20T21:22:46.485Z,25.00
2023-04-20T21:25:14.947Z,26.13
2023-04-20T21:27:43.201Z,27.07
2023-04-20T21:30:13.005Z,25.43
2023-04-20T21:32:42.835Z,26.23
2023-04-20T21:35:11.475Z,25.40
2023-04-20T21:37:39.810Z,25.60
2023-04-20T21:40:09.761Z,29.30
2023-04-20T21:42:38.169Z,27.53
2023-04-20T21:45:09.877Z,29.17
2023-04-20T21:47:39.783Z,27.67
2023-04-20T21:50:12.383Z,28.03
2023-04-20T21:52:40.725Z,28.60
2023-04-20T21:55:10.467Z,27.10
2023-04-20T21:57:38.710Z,27.60
2023-04-20T22:00:08.775Z,28.30
2023-04-20T22:02:36.953Z,29.00
2023-04-20T22:05:09.364Z,26.23
2023-04-20T22:07:38.816Z,27.83
2023-04-20T22:10:08.168Z,27.90
2023-04-20T22:12:40.233Z,27.50
2023-04-20T22:15:10.817Z,27.90
2023-04-20T22:17:42.315Z,26.70
2023-04-20T22:20:12.123Z,27.67
2023-04-20T22:22:42.040Z,27.67
2023-04-20T22:25:11.247Z,26.57
2023-04-20T22:27:40.770Z,26.87
2023-04-20T22:30:09.759Z,29.13
2023-04-20T22:32:38.121Z,27.50
2023-04-20T22:35:07.251Z,29.80
2023-04-20T22:37:35.277Z,27.47
2023-04-20T22:40:06.282Z,28.80
2023-04-20T22:42:36.611Z,29.10
2023-04-20T22:45:07.826Z,29.40
2023-04-20T22:47:35.829Z,31.77
2023-04-20T22:50:07.401Z,29.33
2023-04-20T22:52:38.053Z,30.77
2023-04-20T22:55:09.570Z,31.63
2023-04-20T22:57:39.240Z,29.00
2023-04-20T23:00:16.280Z,31.43
2023-04-20T23:02:44.532Z,31.93
2023-04-20T23:05:12.776Z,30.90
2023-04-20T23:07:41.526Z,32.77
2023-04-20T23:10:12.747Z,32.40
2023-04-20T23:12:40.830Z,43.10
2023-04-20T23:15:10.487Z,37.03
2023-04-20T23:17:38.909Z,32.57
2023-04-20T23:20:09.637Z,35.27
2023-04-20T23:22:37.903Z,34.40
2023-04-20T23:25:06.617Z,35.83
2023-04-20T23:27:35.970Z,37.87
2023-04-20T23:30:04.500Z,35.60
2023-04-20T23:32:32.924Z,37.17
2023-04-20T23:35:01.330Z,35.33
2023-04-20T23:37:29.682Z,34.77
2023-04-20T23:39:58.129Z,35.93
2023-04-20T23:42:26.541Z,33.87
2023-04-20T23:44:56.696Z,36.63
2023-04-20T23:47:24.965Z,37.80
2023-04-20T23:49:55.128Z,36.63
2023-04-20T23:52:26.068Z,37.13
2023-04-20T23:54:54.551Z,37.77
2023-04-20T23:57:22.708Z,42.07
2023-04-20T23:59:51.290Z,40.80
